sensor_id;sensor_type;location;lat;lon;timestamp;P1;durP1;ratioP1;P2;durP2;ratioP2
8462;SDS011;4268;52.506;13.462;2022-10-31T00:00:14;24.27;;;21.43;;
8462;SDS011;4268;52.506;13.462;2022-10-31T00:02:40;25.03;;;22.37;;
8462;SDS011;4268;52.506;13.462;2022-10-31T00:05:06;24.63;;;22.10;;
8462;SDS011;4268;52.506;13.462;2022-10-31T00:07:31;28.10;;;23.87;;
8462;SDS011;4268;52.506;13.462;2022-10-31T00:09:57;25.17;;;22.57;;
8462;SDS011;4268;52.506;13.462;2022-10-31T00:12:22;25.77;;;23.37;;
8462;SDS011;4268;52.506;13.462;2022-10-31T00:14:48;28.53;;;25.57;;
8462;SDS011;4268;52.506;13.462;2022-10-31T00:17:13;27.17;;;24.63;;
8462;SDS011;4268;52.506;13.462;2022-10-31T00:19:39;26.80;;;24.23;;
8462;SDS011;4268;52.506;13.462;2022-10-31T00:22:04;26.97;;;24.47;;
8462;SDS011;4268;52.506;13.462;2022-10-31T00:24:30;27.80;;;25.10;;
8462;SDS011;4268;52.506;13.462;2022-10-31T00:26:55;26.10;;;23.63;;
8462;SDS011;4268;52.506;13.462;2022-10-31T00:29:21;28.33;;;25.63;;
8462;SDS011;4268;52.506;13.462;2022-10-31T00:31:46;28.67;;;26.13;;
8462;SDS011;4268;52.506;13.462;2022-10-31T00:34:12;30.30;;;27.70;;
8462;SDS011;4268;52.506;13.462;2022-10-31T00:36:37;30.27;;;27.60;;
8462;SDS011;4268;52.506;13.462;2022-10-31T00:39:03;29.93;;;27.33;;
8462;SDS011;4268;52.506;13.462;2022-10-31T00:41:28;32.93;;;29.90;;
8462;SDS011;4268;52.506;13.462;2022-10-31T00:43:54;30.97;;;28.27;;
8462;SDS011;4268;52.506;13.462;2022-10-31T00:46:20;28.40;;;25.87;;
8462;SDS011;4268;52.506;13.462;2022-10-31T00:48:46;30.67;;;27.77;;
8462;SDS011;4268;52.506;13.462;2022-10-31T00:51:11;28.23;;;25.53;;
8462;SDS011;4268;52.506;13.462;2022-10-31T00:53:37;31.30;;;27.53;;
8462;SDS011;4268;52.506;13.462;2022-10-31T00:56:02;30.07;;;27.47;;
8462;SDS011;4268;52.506;13.462;2022-10-31T00:58:28;28.97;;;26.37;;
8462;SDS011;4268;52.506;13.462;2022-10-31T01:00:54;31.10;;;28.23;;
8462;SDS011;4268;52.506;13.462;2022-10-31T01:03:20;30.87;;;28.27;;
8462;SDS011;4268;52.506;13.462;2022-10-31T01:05:54;32.40;;;29.37;;
8462;SDS011;4268;52.506;13.462;2022-10-31T01:08:23;28.90;;;26.20;;
8462;SDS011;4268;52.506;13.462;2022-10-31T01:11:01;29.20;;;26.73;;
8462;SDS011;4268;52.506;13.462;2022-10-31T01:13:38;29.80;;;27.00;;
8462;SDS011;4268;52.506;13.462;2022-10-31T01:16:04;29.60;;;26.93;;
8462;SDS011;4268;52.506;13.462;2022-10-31T01:18:31;27.70;;;25.23;;
8462;SDS011;4268;52.506;13.462;2022-10-31T01:21:01;26.13;;;23.80;;
8462;SDS011;4268;52.506;13.462;2022-10-31T01:23:31;27.03;;;24.80;;
8462;SDS011;4268;52.506;13.462;2022-10-31T01:28:25;27.70;;;25.20;;
8462;SDS011;4268;52.506;13.462;2022-10-31T01:30:51;28.17;;;25.67;;
8462;SDS011;4268;52.506;13.462;2022-10-31T01:33:17;26.47;;;24.27;;
8462;SDS011;4268;52.506;13.462;2022-10-31T01:35:43;28.53;;;26.17;;
8462;SDS011;4268;52.506;13.462;2022-10-31T01:38:08;27.07;;;24.67;;
8462;SDS011;4268;52.506;13.462;2022-10-31T01:40:34;26.77;;;24.57;;
8462;SDS011;4268;52.506;13.462;2022-10-31T01:42:59;25.37;;;23.27;;
8462;SDS011;4268;52.506;13.462;2022-10-31T01:45:25;25.63;;;23.70;;
8462;SDS011;4268;52.506;13.462;2022-10-31T01:47:50;28.57;;;26.17;;
8462;SDS011;4268;52.506;13.462;2022-10-31T01:50:35;26.70;;;24.50;;
8462;SDS011;4268;52.506;13.462;2022-10-31T01:53:03;27.17;;;24.87;;
8462;SDS011;4268;52.506;13.462;2022-10-31T01:55:33;25.50;;;23.00;;
8462;SDS011;4268;52.506;13.462;2022-10-31T01:58:04;25.13;;;22.93;;
8462;SDS011;4268;52.506;13.462;2022-10-31T02:00:36;23.67;;;21.50;;
8462;SDS011;4268;52.506;13.462;2022-10-31T02:03:03;24.80;;;22.60;;
8462;SDS011;4268;52.506;13.462;2022-10-31T02:05:29;26.70;;;24.47;;
8462;SDS011;4268;52.506;13.462;2022-10-31T02:08:00;25.20;;;23.17;;
8462;SDS011;4268;52.506;13.462;2022-10-31T02:10:46;23.53;;;21.63;;
8462;SDS011;4268;52.506;13.462;2022-10-31T02:13:12;24.23;;;22.03;;
8462;SDS011;4268;52.506;13.462;2022-10-31T02:15:38;22.37;;;20.47;;
8462;SDS011;4268;52.506;13.462;2022-10-31T02:18:05;22.70;;;20.53;;
8462;SDS011;4268;52.506;13.462;2022-10-31T02:20:33;22.13;;;20.33;;
8462;SDS011;4268;52.506;13.462;2022-10-31T02:31:39;22.87;;;20.97;;
8462;SDS011;4268;52.506;13.462;2022-10-31T02:34:23;23.10;;;21.20;;
8462;SDS011;4268;52.506;13.462;2022-10-31T02:40:30;22.10;;;20.27;;
8462;SDS011;4268;52.506;13.462;2022-10-31T02:43:03;24.13;;;22.03;;
8462;SDS011;4268;52.506;13.462;2022-10-31T02:45:39;23.97;;;22.07;;
8462;SDS011;4268;52.506;13.462;2022-10-31T02:48:13;23.07;;;21.20;;
8462;SDS011;4268;52.506;13.462;2022-10-31T02:50:44;23.23;;;21.43;;
8462;SDS011;4268;52.506;13.462;2022-10-31T02:53:17;21.90;;;20.10;;
8462;SDS011;4268;52.506;13.462;2022-10-31T02:58:21;20.50;;;18.97;;
8462;SDS011;4268;52.506;13.462;2022-10-31T03:03:58;24.13;;;22.03;;
8462;SDS011;4268;52.506;13.462;2022-10-31T03:07:23;20.83;;;19.30;;
8462;SDS011;4268;52.506;13.462;2022-10-31T03:09:39;22.53;;;20.50;;
8462;SDS011;4268;52.506;13.462;2022-10-31T03:12:08;22.13;;;20.10;;
8462;SDS011;4268;52.506;13.462;2022-10-31T03:14:52;21.30;;;19.40;;
8462;SDS011;4268;52.506;13.462;2022-10-31T03:17:52;22.17;;;20.33;;
8462;SDS011;4268;52.506;13.462;2022-10-31T03:20:15;21.37;;;19.27;;
8462;SDS011;4268;52.506;13.462;2022-10-31T03:22:44;22.13;;;20.23;;
8462;SDS011;4268;52.506;13.462;2022-10-31T03:25:11;19.77;;;18.17;;
8462;SDS011;4268;52.506;13.462;2022-10-31T03:27:38;20.53;;;18.73;;
8462;SDS011;4268;52.506;13.462;2022-10-31T03:30:07;20.70;;;19.10;;
8462;SDS011;4268;52.506;13.462;2022-10-31T03:32:37;21.40;;;19.50;;
8462;SDS011;4268;52.506;13.462;2022-10-31T03:35:30;20.37;;;18.57;;
8462;SDS011;4268;52.506;13.462;2022-10-31T03:37:58;19.40;;;17.80;;
8462;SDS011;4268;52.506;13.462;2022-10-31T03:40:26;20.33;;;18.73;;
8462;SDS011;4268;52.506;13.462;2022-10-31T03:42:59;19.60;;;17.90;;
8462;SDS011;4268;52.506;13.462;2022-10-31T03:45:29;21.50;;;19.53;;
8462;SDS011;4268;52.506;13.462;2022-10-31T03:47:56;21.30;;;19.40;;
8462;SDS011;4268;52.506;13.462;2022-10-31T03:50:24;19.27;;;17.27;;
8462;SDS011;4268;52.506;13.462;2022-10-31T03:53:06;18.80;;;17.00;;
8462;SDS011;4268;52.506;13.462;2022-10-31T03:55:39;19.43;;;17.93;;
8462;SDS011;4268;52.506;13.462;2022-10-31T03:58:14;19.97;;;18.17;;
8462;SDS011;4268;52.506;13.462;2022-10-31T04:00:46;20.17;;;18.57;;
8462;SDS011;4268;52.506;13.462;2022-10-31T04:03:21;18.43;;;16.83;;
8462;SDS011;4268;52.506;13.462;2022-10-31T04:05:50;17.97;;;16.10;;
8462;SDS011;4268;52.506;13.462;2022-10-31T04:08:19;17.37;;;15.87;;
8462;SDS011;4268;52.506;13.462;2022-10-31T04:10:49;18.53;;;16.83;;
8462;SDS011;4268;52.506;13.462;2022-10-31T04:13:17;18.60;;;16.87;;
8462;SDS011;4268;52.506;13.462;2022-10-31T04:15:48;18.70;;;16.93;;
8462;SDS011;4268;52.506;13.462;2022-10-31T04:18:17;17.07;;;15.67;;
8462;SDS011;4268;52.506;13.462;2022-10-31T04:20:42;16.57;;;15.07;;
8462;SDS011;4268;52.506;13.462;2022-10-31T04:23:13;17.23;;;15.53;;
8462;SDS011;4268;52.506;13.462;2022-10-31T04:25:49;16.30;;;14.87;;
8462;SDS011;4268;52.506;13.462;2022-10-31T04:28:15;16.07;;;14.63;;
8462;SDS011;4268;52.506;13.462;2022-10-31T04:30:40;16.30;;;14.87;;
8462;SDS011;4268;52.506;13.462;2022-10-31T04:33:06;15.87;;;14.40;;
8462;SDS011;4268;52.506;13.462;2022-10-31T04:35:31;16.20;;;14.63;;
8462;SDS011;4268;52.506;13.462;2022-10-31T04:37:57;15.23;;;13.83;;
8462;SDS011;4268;52.506;13.462;2022-10-31T04:40:22;15.37;;;13.80;;
8462;SDS011;4268;52.506;13.462;2022-10-31T04:42:48;15.00;;;13.53;;
8462;SDS011;4268;52.506;13.462;2022-10-31T04:45:13;14.67;;;13.47;;
8462;SDS011;4268;52.506;13.462;2022-10-31T04:47:39;14.63;;;13.27;;
8462;SDS011;4268;52.506;13.462;2022-10-31T04:50:04;14.67;;;13.23;;
8462;SDS011;4268;52.506;13.462;2022-10-31T04:52:30;15.77;;;14.27;;
8462;SDS011;4268;52.506;13.462;2022-10-31T04:54:56;16.60;;;14.90;;
8462;SDS011;4268;52.506;13.462;2022-10-31T04:57:21;18.07;;;15.93;;
8462;SDS011;4268;52.506;13.462;2022-10-31T04:59:46;16.90;;;15.47;;
8462;SDS011;4268;52.506;13.462;2022-10-31T05:02:12;17.33;;;15.77;;
8462;SDS011;4268;52.506;13.462;2022-10-31T05:04:38;16.60;;;15.00;;
8462;SDS011;4268;52.506;13.462;2022-10-31T05:07:03;16.37;;;14.87;;
8462;SDS011;4268;52.506;13.462;2022-10-31T05:09:29;16.57;;;15.23;;
8462;SDS011;4268;52.506;13.462;2022-10-31T05:11:54;16.00;;;14.40;;
8462;SDS011;4268;52.506;13.462;2022-10-31T05:14:20;16.50;;;14.90;;
8462;SDS011;4268;52.506;13.462;2022-10-31T05:16:46;16.37;;;14.80;;
8462;SDS011;4268;52.506;13.462;2022-10-31T05:19:11;16.17;;;14.60;;
8462;SDS011;4268;52.506;13.462;2022-10-31T05:21:36;16.90;;;15.17;;
8462;SDS011;4268;52.506;13.462;2022-10-31T05:24:02;14.53;;;13.33;;
8462;SDS011;4268;52.506;13.462;2022-10-31T05:26:28;15.73;;;14.30;;
8462;SDS011;4268;52.506;13.462;2022-10-31T05:28:53;14.93;;;13.63;;
8462;SDS011;4268;52.506;13.462;2022-10-31T05:31:19;14.43;;;13.13;;
8462;SDS011;4268;52.506;13.462;2022-10-31T05:33:44;14.93;;;13.53;;
8462;SDS011;4268;52.506;13.462;2022-10-31T05:36:10;14.83;;;13.40;;
8462;SDS011;4268;52.506;13.462;2022-10-31T05:38:35;15.73;;;14.03;;
8462;SDS011;4268;52.506;13.462;2022-10-31T05:41:01;13.70;;;12.43;;
8462;SDS011;4268;52.506;13.462;2022-10-31T05:43:27;14.50;;;12.97;;
8462;SDS011;4268;52.506;13.462;2022-10-31T05:45:53;16.87;;;13.93;;
8462;SDS011;4268;52.506;13.462;2022-10-31T05:48:19;14.20;;;12.87;;
8462;SDS011;4268;52.506;13.462;2022-10-31T05:50:46;15.73;;;13.87;;
8462;SDS011;4268;52.506;13.462;2022-10-31T05:53:13;15.23;;;13.43;;
8462;SDS011;4268;52.506;13.462;2022-10-31T05:55:38;14.40;;;13.10;;
8462;SDS011;4268;52.506;13.462;2022-10-31T05:58:05;14.43;;;13.13;;
8462;SDS011;4268;52.506;13.462;2022-10-31T06:00:31;14.90;;;13.40;;
8462;SDS011;4268;52.506;13.462;2022-10-31T06:02:59;14.50;;;13.17;;
8462;SDS011;4268;52.506;13.462;2022-10-31T06:05:26;15.60;;;14.10;;
8462;SDS011;4268;52.506;13.462;2022-10-31T06:07:52;15.23;;;13.80;;
8462;SDS011;4268;52.506;13.462;2022-10-31T06:10:18;15.43;;;13.80;;
8462;SDS011;4268;52.506;13.462;2022-10-31T06:12:45;15.23;;;13.83;;
8462;SDS011;4268;52.506;13.462;2022-10-31T06:15:11;15.97;;;14.00;;
8462;SDS011;4268;52.506;13.462;2022-10-31T06:17:37;17.53;;;15.60;;
8462;SDS011;4268;52.506;13.462;2022-10-31T06:20:03;16.37;;;14.63;;
8462;SDS011;4268;52.506;13.462;2022-10-31T06:22:29;18.10;;;14.30;;
8462;SDS011;4268;52.506;13.462;2022-10-31T06:24:54;20.23;;;16.03;;
8462;SDS011;4268;52.506;13.462;2022-10-31T06:27:20;16.93;;;15.37;;
8462;SDS011;4268;52.506;13.462;2022-10-31T06:29:46;16.50;;;14.87;;
8462;SDS011;4268;52.506;13.462;2022-10-31T06:32:12;16.30;;;14.77;;
8462;SDS011;4268;52.506;13.462;2022-10-31T06:34:38;15.33;;;13.90;;
8462;SDS011;4268;52.506;13.462;2022-10-31T06:37:05;17.70;;;15.90;;
8462;SDS011;4268;52.506;13.462;2022-10-31T06:39:34;16.63;;;14.97;;
8462;SDS011;4268;52.506;13.462;2022-10-31T06:42:00;16.47;;;14.97;;
8462;SDS011;4268;52.506;13.462;2022-10-31T06:44:26;17.40;;;13.77;;
8462;SDS011;4268;52.506;13.462;2022-10-31T06:46:51;16.07;;;14.20;;
8462;SDS011;4268;52.506;13.462;2022-10-31T06:49:17;18.83;;;14.37;;
8462;SDS011;4268;52.506;13.462;2022-10-31T06:51:42;15.53;;;13.67;;
8462;SDS011;4268;52.506;13.462;2022-10-31T06:54:08;16.47;;;14.17;;
8462;SDS011;4268;52.506;13.462;2022-10-31T06:56:33;17.83;;;15.93;;
8462;SDS011;4268;52.506;13.462;2022-10-31T06:58:59;14.93;;;13.50;;
8462;SDS011;4268;52.506;13.462;2022-10-31T07:01:24;14.07;;;12.27;;
8462;SDS011;4268;52.506;13.462;2022-10-31T07:03:50;15.63;;;13.47;;
8462;SDS011;4268;52.506;13.462;2022-10-31T07:06:15;15.33;;;13.17;;
8462;SDS011;4268;52.506;13.462;2022-10-31T07:08:41;13.43;;;11.97;;
8462;SDS011;4268;52.506;13.462;2022-10-31T07:11:06;14.87;;;11.13;;
8462;SDS011;4268;52.506;13.462;2022-10-31T07:13:32;16.77;;;11.00;;
8462;SDS011;4268;52.506;13.462;2022-10-31T07:16:02;12.20;;;10.63;;
8462;SDS011;4268;52.506;13.462;2022-10-31T07:18:29;12.23;;;10.10;;
8462;SDS011;4268;52.506;13.462;2022-10-31T07:20:55;15.27;;;10.70;;
8462;SDS011;4268;52.506;13.462;2022-10-31T07:23:21;15.53;;;10.40;;
8462;SDS011;4268;52.506;13.462;2022-10-31T07:25:47;14.27;;;11.50;;
8462;SDS011;4268;52.506;13.462;2022-10-31T07:28:12;14.40;;;11.83;;
8462;SDS011;4268;52.506;13.462;2022-10-31T07:30:38;17.27;;;12.97;;
8462;SDS011;4268;52.506;13.462;2022-10-31T07:33:04;12.73;;;11.37;;
8462;SDS011;4268;52.506;13.462;2022-10-31T07:35:30;14.20;;;12.10;;
8462;SDS011;4268;52.506;13.462;2022-10-31T07:38:06;19.73;;;13.10;;
8462;SDS011;4268;52.506;13.462;2022-10-31T07:40:33;16.37;;;12.87;;
8462;SDS011;4268;52.506;13.462;2022-10-31T07:42:59;14.53;;;12.27;;
8462;SDS011;4268;52.506;13.462;2022-10-31T07:45:24;14.47;;;12.97;;
8462;SDS011;4268;52.506;13.462;2022-10-31T07:47:51;15.17;;;13.50;;
8462;SDS011;4268;52.506;13.462;2022-10-31T07:50:24;18.03;;;13.17;;
8462;SDS011;4268;52.506;13.462;2022-10-31T07:53:01;15.80;;;12.60;;
8462;SDS011;4268;52.506;13.462;2022-10-31T07:55:34;18.80;;;15.37;;
8462;SDS011;4268;52.506;13.462;2022-10-31T07:58:01;14.87;;;13.43;;
8462;SDS011;4268;52.506;13.462;2022-10-31T08:00:28;17.93;;;14.60;;
8462;SDS011;4268;52.506;13.462;2022-10-31T08:02:58;15.60;;;14.00;;
8462;SDS011;4268;52.506;13.462;2022-10-31T08:05:28;15.83;;;14.17;;
8462;SDS011;4268;52.506;13.462;2022-10-31T08:07:55;17.73;;;15.00;;
8462;SDS011;4268;52.506;13.462;2022-10-31T08:10:21;17.80;;;14.80;;
8462;SDS011;4268;52.506;13.462;2022-10-31T08:12:46;16.30;;;14.57;;
8462;SDS011;4268;52.506;13.462;2022-10-31T08:15:12;16.70;;;14.83;;
8462;SDS011;4268;52.506;13.462;2022-10-31T08:17:38;18.67;;;15.17;;
8462;SDS011;4268;52.506;13.462;2022-10-31T08:20:05;15.83;;;13.97;;
8462;SDS011;4268;52.506;13.462;2022-10-31T08:22:31;17.37;;;14.70;;
8462;SDS011;4268;52.506;13.462;2022-10-31T08:24:56;16.60;;;14.00;;
8462;SDS011;4268;52.506;13.462;2022-10-31T08:27:22;15.57;;;13.30;;
8462;SDS011;4268;52.506;13.462;2022-10-31T08:29:48;16.60;;;14.80;;
8462;SDS011;4268;52.506;13.462;2022-10-31T08:32:13;14.17;;;12.77;;
8462;SDS011;4268;52.506;13.462;2022-10-31T08:34:38;15.33;;;13.40;;
8462;SDS011;4268;52.506;13.462;2022-10-31T08:37:04;15.50;;;13.90;;
8462;SDS011;4268;52.506;13.462;2022-10-31T08:39:29;16.57;;;13.70;;
8462;SDS011;4268;52.506;13.462;2022-10-31T08:41:55;16.63;;;13.53;;
8462;SDS011;4268;52.506;13.462;2022-10-31T08:44:20;14.73;;;12.83;;
8462;SDS011;4268;52.506;13.462;2022-10-31T08:46:46;13.77;;;12.37;;
8462;SDS011;4268;52.506;13.462;2022-10-31T08:49:11;19.07;;;13.83;;
8462;SDS011;4268;52.506;13.462;2022-10-31T08:51:37;17.73;;;13.43;;
8462;SDS011;4268;52.506;13.462;2022-10-31T08:54:02;17.20;;;13.67;;
8462;SDS011;4268;52.506;13.462;2022-10-31T08:56:28;16.03;;;14.33;;
8462;SDS011;4268;52.506;13.462;2022-10-31T08:58:54;15.20;;;13.67;;
8462;SDS011;4268;52.506;13.462;2022-10-31T09:01:19;15.20;;;12.97;;
8462;SDS011;4268;52.506;13.462;2022-10-31T09:03:45;18.23;;;13.37;;
8462;SDS011;4268;52.506;13.462;2022-10-31T09:06:10;16.83;;;13.37;;
8462;SDS011;4268;52.506;13.462;2022-10-31T09:08:36;17.23;;;13.83;;
8462;SDS011;4268;52.506;13.462;2022-10-31T09:11:02;20.20;;;14.67;;
8462;SDS011;4268;52.506;13.462;2022-10-31T09:13:28;17.90;;;14.10;;
8462;SDS011;4268;52.506;13.462;2022-10-31T09:15:55;19.53;;;14.43;;
8462;SDS011;4268;52.506;13.462;2022-10-31T09:18:21;17.40;;;13.80;;
8462;SDS011;4268;52.506;13.462;2022-10-31T09:20:48;15.60;;;13.90;;
8462;SDS011;4268;52.506;13.462;2022-10-31T09:23:15;15.90;;;14.27;;
8462;SDS011;4268;52.506;13.462;2022-10-31T09:25:43;17.50;;;15.60;;
8462;SDS011;4268;52.506;13.462;2022-10-31T09:28:10;19.23;;;16.33;;
8462;SDS011;4268;52.506;13.462;2022-10-31T09:30:37;17.47;;;15.40;;
8462;SDS011;4268;52.506;13.462;2022-10-31T09:33:04;18.97;;;16.00;;
8462;SDS011;4268;52.506;13.462;2022-10-31T09:35:31;17.53;;;15.63;;
8462;SDS011;4268;52.506;13.462;2022-10-31T09:37:58;18.23;;;14.47;;
8462;SDS011;4268;52.506;13.462;2022-10-31T09:46:13;19.63;;;16.23;;
8462;SDS011;4268;52.506;13.462;2022-10-31T09:52:29;19.33;;;16.57;;
8462;SDS011;4268;52.506;13.462;2022-10-31T09:54:38;18.83;;;16.93;;
8462;SDS011;4268;52.506;13.462;2022-10-31T09:57:10;20.40;;;18.17;;
8462;SDS011;4268;52.506;13.462;2022-10-31T09:59:39;20.43;;;18.27;;
8462;SDS011;4268;52.506;13.462;2022-10-31T10:02:24;20.87;;;18.70;;
8462;SDS011;4268;52.506;13.462;2022-10-31T10:05:02;22.90;;;19.17;;
8462;SDS011;4268;52.506;13.462;2022-10-31T10:19:28;23.17;;;20.10;;
8462;SDS011;4268;52.506;13.462;2022-10-31T10:27:46;23.10;;;19.93;;
8462;SDS011;4268;52.506;13.462;2022-10-31T10:30:21;23.13;;;20.60;;
8462;SDS011;4268;52.506;13.462;2022-10-31T10:32:49;22.93;;;19.33;;
8462;SDS011;4268;52.506;13.462;2022-10-31T10:38:38;23.03;;;20.50;;
8462;SDS011;4268;52.506;13.462;2022-10-31T10:40:49;22.33;;;18.70;;
8462;SDS011;4268;52.506;13.462;2022-10-31T10:46:00;19.57;;;17.50;;
8462;SDS011;4268;52.506;13.462;2022-10-31T10:51:33;20.70;;;18.40;;
8462;SDS011;4268;52.506;13.462;2022-10-31T10:59:21;21.83;;;16.47;;
8462;SDS011;4268;52.506;13.462;2022-10-31T11:01:50;17.93;;;16.27;;
8462;SDS011;4268;52.506;13.462;2022-10-31T11:04:30;21.33;;;17.00;;
8462;SDS011;4268;52.506;13.462;2022-10-31T11:06:59;18.03;;;16.20;;
8462;SDS011;4268;52.506;13.462;2022-10-31T11:09:30;19.30;;;16.27;;
8462;SDS011;4268;52.506;13.462;2022-10-31T11:11:57;17.57;;;15.70;;
8462;SDS011;4268;52.506;13.462;2022-10-31T11:14:23;18.37;;;16.10;;
8462;SDS011;4268;52.506;13.462;2022-10-31T11:16:55;18.80;;;16.90;;
8462;SDS011;4268;52.506;13.462;2022-10-31T11:19:34;18.70;;;16.13;;
8462;SDS011;4268;52.506;13.462;2022-10-31T11:22:07;20.47;;;17.67;;
8462;SDS011;4268;52.506;13.462;2022-10-31T11:24:40;19.47;;;17.40;;
8462;SDS011;4268;52.506;13.462;2022-10-31T11:29:40;18.97;;;16.97;;
8462;SDS011;4268;52.506;13.462;2022-10-31T11:32:08;18.00;;;16.23;;
8462;SDS011;4268;52.506;13.462;2022-10-31T11:34:43;17.07;;;15.40;;
8462;SDS011;4268;52.506;13.462;2022-10-31T11:37:21;18.37;;;16.57;;
8462;SDS011;4268;52.506;13.462;2022-10-31T11:39:54;18.60;;;16.63;;
8462;SDS011;4268;52.506;13.462;2022-10-31T11:42:22;20.33;;;18.13;;
8462;SDS011;4268;52.506;13.462;2022-10-31T11:44:53;19.60;;;17.50;;
8462;SDS011;4268;52.506;13.462;2022-10-31T11:47:27;18.73;;;16.87;;
8462;SDS011;4268;52.506;13.462;2022-10-31T11:49:55;21.40;;;17.50;;
8462;SDS011;4268;52.506;13.462;2022-10-31T11:52:23;20.57;;;17.90;;
8462;SDS011;4268;52.506;13.462;2022-10-31T11:54:55;17.93;;;16.07;;
8462;SDS011;4268;52.506;13.462;2022-10-31T11:59:58;21.07;;;18.83;;
8462;SDS011;4268;52.506;13.462;2022-10-31T12:02:25;20.50;;;17.70;;
8462;SDS011;4268;52.506;13.462;2022-10-31T12:05:00;18.53;;;16.63;;
8462;SDS011;4268;52.506;13.462;2022-10-31T12:07:29;21.30;;;17.93;;
8462;SDS011;4268;52.506;13.462;2022-10-31T12:09:55;20.17;;;17.93;;
8462;SDS011;4268;52.506;13.462;2022-10-31T12:12:27;20.40;;;18.30;;
8462;SDS011;4268;52.506;13.462;2022-10-31T12:17:50;22.27;;;19.87;;
8462;SDS011;4268;52.506;13.462;2022-10-31T12:20:36;21.17;;;18.97;;
8462;SDS011;4268;52.506;13.462;2022-10-31T12:23:33;20.00;;;17.90;;
8462;SDS011;4268;52.506;13.462;2022-10-31T12:29:50;22.43;;;18.70;;
8462;SDS011;4268;52.506;13.462;2022-10-31T12:35:19;21.40;;;18.10;;
8462;SDS011;4268;52.506;13.462;2022-10-31T12:41:03;20.37;;;18.03;;
8462;SDS011;4268;52.506;13.462;2022-10-31T12:43:46;19.63;;;17.37;;
8462;SDS011;4268;52.506;13.462;2022-10-31T12:46:42;19.43;;;17.20;;
8462;SDS011;4268;52.506;13.462;2022-10-31T12:49:25;21.83;;;17.63;;
8462;SDS011;4268;52.506;13.462;2022-10-31T12:52:10;22.23;;;17.27;;
8462;SDS011;4268;52.506;13.462;2022-10-31T12:54:45;19.77;;;16.23;;
8462;SDS011;4268;52.506;13.462;2022-10-31T12:57:33;19.40;;;17.10;;
8462;SDS011;4268;52.506;13.462;2022-10-31T13:02:44;21.97;;;18.07;;
8462;SDS011;4268;52.506;13.462;2022-10-31T13:07:54;23.60;;;18.33;;
8462;SDS011;4268;52.506;13.462;2022-10-31T13:10:47;23.53;;;18.53;;
8462;SDS011;4268;52.506;13.462;2022-10-31T13:13:24;19.50;;;17.40;;
8462;SDS011;4268;52.506;13.462;2022-10-31T13:15:59;19.33;;;17.20;;
8462;SDS011;4268;52.506;13.462;2022-10-31T13:18:40;28.37;;;19.63;;
8462;SDS011;4268;52.506;13.462;2022-10-31T13:21:15;23.73;;;19.37;;
8462;SDS011;4268;52.506;13.462;2022-10-31T13:23:51;21.93;;;16.77;;
8462;SDS011;4268;52.506;13.462;2022-10-31T13:26:20;19.60;;;16.90;;
8462;SDS011;4268;52.506;13.462;2022-10-31T13:29:28;20.27;;;18.10;;
8462;SDS011;4268;52.506;13.462;2022-10-31T13:32:07;17.90;;;15.90;;
8462;SDS011;4268;52.506;13.462;2022-10-31T13:34:37;20.77;;;17.30;;
8462;SDS011;4268;52.506;13.462;2022-10-31T13:39:47;19.03;;;16.87;;
8462;SDS011;4268;52.506;13.462;2022-10-31T13:45:16;21.27;;;17.53;;
8462;SDS011;4268;52.506;13.462;2022-10-31T13:47:58;22.60;;;17.70;;
8462;SDS011;4268;52.506;13.462;2022-10-31T13:50:26;21.73;;;17.47;;
8462;SDS011;4268;52.506;13.462;2022-10-31T13:53:13;19.27;;;17.17;;
8462;SDS011;4268;52.506;13.462;2022-10-31T13:55:45;21.43;;;18.43;;
8462;SDS011;4268;52.506;13.462;2022-10-31T14:00:58;17.47;;;15.60;;
8462;SDS011;4268;52.506;13.462;2022-10-31T14:03:24;18.37;;;16.47;;
8462;SDS011;4268;52.506;13.462;2022-10-31T14:05:53;17.33;;;15.60;;
8462;SDS011;4268;52.506;13.462;2022-10-31T14:08:21;20.23;;;15.67;;
8462;SDS011;4268;52.506;13.462;2022-10-31T14:10:49;18.33;;;15.67;;
8462;SDS011;4268;52.506;13.462;2022-10-31T14:13:21;19.63;;;16.80;;
8462;SDS011;4268;52.506;13.462;2022-10-31T14:15:58;18.33;;;16.53;;
8462;SDS011;4268;52.506;13.462;2022-10-31T14:18:30;18.43;;;16.50;;
8462;SDS011;4268;52.506;13.462;2022-10-31T14:20:58;21.37;;;18.27;;
8462;SDS011;4268;52.506;13.462;2022-10-31T14:29:21;19.23;;;17.07;;
8462;SDS011;4268;52.506;13.462;2022-10-31T14:31:53;18.33;;;15.53;;
8462;SDS011;4268;52.506;13.462;2022-10-31T14:39:52;18.93;;;16.60;;
8462;SDS011;4268;52.506;13.462;2022-10-31T14:45:13;17.33;;;15.50;;
8462;SDS011;4268;52.506;13.462;2022-10-31T14:50:51;19.20;;;17.20;;
8462;SDS011;4268;52.506;13.462;2022-10-31T14:53:32;18.23;;;16.10;;
8462;SDS011;4268;52.506;13.462;2022-10-31T14:56:00;17.73;;;15.87;;
8462;SDS011;4268;52.506;13.462;2022-10-31T14:58:35;20.63;;;18.43;;
8462;SDS011;4268;52.506;13.462;2022-10-31T15:01:07;22.70;;;20.20;;
8462;SDS011;4268;52.506;13.462;2022-10-31T15:03:49;25.63;;;22.90;;
8462;SDS011;4268;52.506;13.462;2022-10-31T15:06:16;26.37;;;22.33;;
8462;SDS011;4268;52.506;13.462;2022-10-31T15:08:45;26.77;;;22.00;;
8462;SDS011;4268;52.506;13.462;2022-10-31T15:11:14;23.53;;;21.13;;
8462;SDS011;4268;52.506;13.462;2022-10-31T15:14:19;25.47;;;22.73;;
8462;SDS011;4268;52.506;13.462;2022-10-31T15:16:45;25.27;;;20.77;;
8462;SDS011;4268;52.506;13.462;2022-10-31T15:19:20;24.33;;;21.73;;
8462;SDS011;4268;52.506;13.462;2022-10-31T15:21:49;23.40;;;20.90;;
8462;SDS011;4268;52.506;13.462;2022-10-31T15:24:17;24.47;;;20.77;;
8462;SDS011;4268;52.506;13.462;2022-10-31T15:26:44;25.93;;;22.17;;
8462;SDS011;4268;52.506;13.462;2022-10-31T15:29:13;25.00;;;21.93;;
8462;SDS011;4268;52.506;13.462;2022-10-31T15:31:53;27.70;;;24.10;;
8462;SDS011;4268;52.506;13.462;2022-10-31T15:34:30;24.60;;;22.00;;
8462;SDS011;4268;52.506;13.462;2022-10-31T15:37:07;23.13;;;20.73;;
8462;SDS011;4268;52.506;13.462;2022-10-31T15:39:36;24.33;;;21.77;;
8462;SDS011;4268;52.506;13.462;2022-10-31T15:42:02;24.17;;;21.77;;
8462;SDS011;4268;52.506;13.462;2022-10-31T15:44:29;24.20;;;21.77;;
8462;SDS011;4268;52.506;13.462;2022-10-31T15:49:37;24.10;;;21.57;;
8462;SDS011;4268;52.506;13.462;2022-10-31T15:52:28;24.77;;;22.00;;
8462;SDS011;4268;52.506;13.462;2022-10-31T15:54:58;24.57;;;22.07;;
8462;SDS011;4268;52.506;13.462;2022-10-31T15:57:27;24.73;;;22.20;;
8462;SDS011;4268;52.506;13.462;2022-10-31T15:59:54;24.13;;;21.43;;
8462;SDS011;4268;52.506;13.462;2022-10-31T16:02:21;25.20;;;22.60;;
8462;SDS011;4268;52.506;13.462;2022-10-31T16:04:58;25.10;;;22.47;;
8462;SDS011;4268;52.506;13.462;2022-10-31T16:07:31;23.80;;;21.40;;
8462;SDS011;4268;52.506;13.462;2022-10-31T16:10:00;26.33;;;23.53;;
8462;SDS011;4268;52.506;13.462;2022-10-31T16:12:32;24.90;;;22.33;;
8462;SDS011;4268;52.506;13.462;2022-10-31T16:15:01;26.37;;;23.57;;
8462;SDS011;4268;52.506;13.462;2022-10-31T16:17:28;26.63;;;23.77;;
8462;SDS011;4268;52.506;13.462;2022-10-31T16:19:56;29.60;;;24.40;;
8462;SDS011;4268;52.506;13.462;2022-10-31T16:22:33;28.27;;;24.80;;
8462;SDS011;4268;52.506;13.462;2022-10-31T16:27:30;28.23;;;25.30;;
8462;SDS011;4268;52.506;13.462;2022-10-31T16:29:58;27.07;;;24.17;;
8462;SDS011;4268;52.506;13.462;2022-10-31T16:32:35;26.13;;;23.33;;
8462;SDS011;4268;52.506;13.462;2022-10-31T16:37:46;24.57;;;21.67;;
8462;SDS011;4268;52.506;13.462;2022-10-31T16:40:12;25.87;;;23.23;;
8462;SDS011;4268;52.506;13.462;2022-10-31T16:42:39;25.90;;;23.30;;
8462;SDS011;4268;52.506;13.462;2022-10-31T16:45:06;26.97;;;24.23;;